Time;durP1;ratioP1;P1;durP2;ratioP2;P2;SDS_P1;SDS_P2;PMS_P1;PMS_P2;Temp;Humidity;BMP_temperature;BMP_pressure;BME280_temperature;BME280_humidity;BME280_pressure;Samples;Min_cycle;Max_cycle;Signal;HPM_P1;HPM_P2
2021/10/08 04:02:14;;;;;;;27.27;16.37;;;9.70;96.30;;;;;;5119891;23;20588;-79
2021/10/08 04:04:39;;;;;;;28.63;16.40;;;9.70;96.30;;;;;;4957874;28;20842;-78
2021/10/08 04:07:05;;;;;;;25.93;16.60;;;9.70;96.30;;;;;;4955942;29;20179;-78
2021/10/08 04:09:30;;;;;;;26.40;16.60;;;9.70;96.30;;;;;;4955902;29;20263;-79
2021/10/08 04:11:56;;;;;;;22.93;16.50;;;9.70;96.30;;;;;;4957539;28;20281;-80
2021/10/08 04:14:22;;;;;;;28.07;17.30;;;9.70;96.30;;;;;;4965706;28;20611;-79
2021/10/08 04:16:47;;;;;;;34.23;18.73;;;9.70;96.30;;;;;;4963604;29;20649;-81
2021/10/08 04:19:12;;;;;;;30.83;17.77;;;9.70;96.30;;;;;;4956602;28;20186;-80
2021/10/08 04:21:38;;;;;;;26.37;18.60;;;9.70;96.30;;;;;;4956933;28;20250;-81
2021/10/08 04:24:04;;;;;;;27.97;20.10;;;9.70;96.30;;;;;;4957172;28;20175;-80
2021/10/08 04:26:29;;;;;;;28.37;19.47;;;9.70;96.30;;;;;;4957289;28;20229;-81
2021/10/08 04:28:55;;;;;;;28.33;20.03;;;9.80;96.30;;;;;;4956131;29;20274;-79
2021/10/08 04:31:20;;;;;;;28.40;19.57;;;9.80;96.30;;;;;;4956909;28;20203;-80
2021/10/08 04:33:45;;;;;;;25.13;19.30;;;9.80;96.30;;;;;;4957117;29;20648;-79
2021/10/08 04:36:11;;;;;;;23.33;18.37;;;9.80;96.30;;;;;;4956227;29;20187;-80
2021/10/08 04:38:36;;;;;;;25.10;18.23;;;9.80;96.30;;;;;;4955872;29;20183;-80
2021/10/08 04:41:02;;;;;;;26.17;18.40;;;9.80;96.30;;;;;;4956659;28;20587;-80
2021/10/08 04:43:28;;;;;;;26.20;18.33;;;9.80;96.30;;;;;;4956137;29;20211;-79
2021/10/08 04:45:54;;;;;;;34.93;20.30;;;9.80;96.30;;;;;;4958320;29;20261;-80
2021/10/08 04:48:20;;;;;;;21.63;18.07;;;9.80;96.30;;;;;;4957496;29;20194;-78
2021/10/08 04:50:45;;;;;;;24.37;17.90;;;9.80;96.30;;;;;;4956634;28;20439;-78
2021/10/08 04:53:19;;;;;;;25.13;16.97;;;9.80;96.30;;;;;;4955081;29;20237;-79
2021/10/08 04:55:46;;;;;;;25.20;17.60;;;9.80;96.30;;;;;;4956624;28;20234;-79
2021/10/08 04:58:12;;;;;;;23.60;18.40;;;9.80;96.30;;;;;;4956584;28;20506;-79
2021/10/08 05:00:38;;;;;;;26.30;17.70;;;9.80;96.30;;;;;;4956250;28;20546;-79
2021/10/08 05:03:11;;;;;;;27.17;18.70;;;9.80;96.30;;;;;;4956206;28;20163;-79
2021/10/08 05:05:37;;;;;;;24.60;17.63;;;9.80;96.30;;;;;;4956943;28;20621;-78
2021/10/08 05:08:04;;;;;;;24.83;18.40;;;9.80;96.30;;;;;;4956994;28;20422;-78
2021/10/08 05:10:30;;;;;;;30.23;19.30;;;9.90;96.30;;;;;;4956737;28;20534;-78
2021/10/08 05:12:55;;;;;;;29.60;20.20;;;9.90;96.30;;;;;;4962766;28;20520;-79
2021/10/08 05:15:21;;;;;;;28.60;19.73;;;9.90;96.30;;;;;;4937451;29;20631;-79
2021/10/08 05:17:46;;;;;;;30.77;20.60;;;9.90;96.30;;;;;;4937560;29;20239;-80
2021/10/08 05:20:12;;;;;;;25.97;19.70;;;9.90;96.30;;;;;;4936811;29;20176;-76
2021/10/08 05:22:38;;;;;;;27.47;19.97;;;9.90;96.30;;;;;;4936199;29;20175;-77
2021/10/08 05:25:04;;;;;;;35.27;21.60;;;10.00;96.30;;;;;;4936728;28;20408;-76
2021/10/08 05:27:29;;;;;;;27.73;19.60;;;10.00;96.30;;;;;;4967246;28;20712;-74
2021/10/08 05:29:55;;;;;;;26.80;19.60;;;10.00;96.30;;;;;;4957585;28;20505;-76
2021/10/08 05:32:20;;;;;;;26.30;18.27;;;10.00;96.30;;;;;;4955617;28;20209;-74
2021/10/08 05:34:46;;;;;;;25.50;20.07;;;10.00;96.30;;;;;;4954900;28;20281;-75
2021/10/08 05:37:11;;;;;;;26.73;19.10;;;10.00;96.30;;;;;;4956900;28;20537;-78
2021/10/08 05:39:37;;;;;;;31.33;19.60;;;10.00;96.30;;;;;;4958815;28;20235;-76
2021/10/08 05:42:02;;;;;;;28.27;19.10;;;10.00;96.30;;;;;;4959452;28;20624;-76
2021/10/08 05:44:28;;;;;;;28.37;20.37;;;10.10;96.30;;;;;;4957337;28;20683;-77
2021/10/08 05:46:54;;;;;;;26.50;19.60;;;10.10;96.30;;;;;;4949856;28;20198;-77
2021/10/08 05:49:20;;;;;;;25.37;19.00;;;10.10;96.30;;;;;;4945658;28;20186;-77
2021/10/08 05:51:46;;;;;;;27.57;20.00;;;10.20;96.30;;;;;;4954897;28;20955;-76
2021/10/08 05:54:11;;;;;;;27.47;20.10;;;10.20;96.30;;;;;;4949940;28;20462;-77
2021/10/08 05:56:37;;;;;;;30.97;19.27;;;10.20;96.30;;;;;;4944941;28;20233;-78
2021/10/08 05:59:03;;;;;;;28.77;20.57;;;10.20;96.30;;;;;;4953076;29;20186;-78
2021/10/08 06:01:28;;;;;;;25.77;20.00;;;10.20;96.30;;;;;;4963674;28;20214;-78
2021/10/08 06:03:53;;;;;;;31.23;21.53;;;10.20;96.30;;;;;;4970042;28;20182;-79
2021/10/08 06:06:19;;;;;;;33.90;20.90;;;10.30;96.30;;;;;;4968673;28;20174;-78
2021/10/08 06:08:44;;;;;;;30.57;20.40;;;10.30;96.30;;;;;;4955357;28;20182;-78
2021/10/08 06:11:10;;;;;;;28.20;20.23;;;10.20;96.30;;;;;;4948840;28;20203;-78
2021/10/08 06:13:35;;;;;;;32.90;21.13;;;10.20;96.30;;;;;;4951240;28;20202;-78
2021/10/08 06:16:01;;;;;;;28.20;19.40;;;10.20;96.30;;;;;;4950454;28;20261;-79
2021/10/08 06:18:27;;;;;;;32.10;21.80;;;10.20;96.30;;;;;;4952703;28;20666;-78
2021/10/08 06:20:53;;;;;;;36.07;22.60;;;10.20;96.30;;;;;;4954376;29;20443;-78
2021/10/08 06:23:21;;;;;;;33.67;23.00;;;10.20;96.30;;;;;;4954063;29;20213;-77
2021/10/08 06:25:47;;;;;;;41.17;23.30;;;10.20;96.30;;;;;;4952806;28;20450;-77
2021/10/08 06:28:12;;;;;;;41.43;24.53;;;10.20;96.30;;;;;;4954758;28;20518;-77
2021/10/08 06:30:38;;;;;;;39.90;24.30;;;10.20;96.30;;;;;;4954472;28;20278;-78
2021/10/08 06:33:03;;;;;;;42.03;24.60;;;10.20;96.30;;;;;;4953425;29;20167;-79
2021/10/08 06:35:32;;;;;;;43.70;23.93;;;10.20;96.30;;;;;;4959412;28;20203;-78
2021/10/08 06:37:58;;;;;;;39.63;25.50;;;10.20;96.30;;;;;;4952757;28;20186;-78
2021/10/08 06:40:23;;;;;;;42.83;26.07;;;10.20;96.30;;;;;;4954526;28;20411;-78
2021/10/08 06:42:49;;;;;;;39.57;25.20;;;10.20;96.30;;;;;;4940238;28;20180;-77
2021/10/08 06:45:14;;;;;;;40.70;24.13;;;10.10;96.30;;;;;;4946891;28;20178;-78
2021/10/08 06:47:40;;;;;;;34.23;22.47;;;10.10;96.30;;;;;;4953061;28;20192;-78
2021/10/08 06:50:06;;;;;;;36.73;24.30;;;10.10;96.30;;;;;;4967109;28;20183;-77
2021/10/08 06:52:32;;;;;;;36.33;24.30;;;10.10;96.30;;;;;;4953701;28;20604;-78
2021/10/08 06:54:57;;;;;;;40.87;26.80;;;10.20;96.30;;;;;;4954257;28;20959;-78
2021/10/08 06:57:22;;;;;;;41.50;24.67;;;10.20;96.30;;;;;;4954541;28;20595;-78
2021/10/08 06:59:48;;;;;;;36.80;24.63;;;10.20;96.30;;;;;;4954207;28;20190;-77
2021/10/08 07:02:13;;;;;;;37.97;24.43;;;10.20;96.30;;;;;;4952625;28;20214;-78
2021/10/08 07:04:39;;;;;;;35.20;24.23;;;10.30;96.30;;;;;;4952237;29;20183;-78
2021/10/08 07:07:05;;;;;;;35.80;22.90;;;10.40;96.30;;;;;;4953995;28;20175;-78
2021/10/08 07:09:30;;;;;;;33.43;23.20;;;10.40;96.30;;;;;;4964371;28;20193;-78
2021/10/08 07:11:56;;;;;;;34.97;22.90;;;10.50;96.30;;;;;;4972703;28;20216;-79
2021/10/08 07:14:21;;;;;;;34.50;21.97;;;10.50;96.30;;;;;;4972152;28;20237;-78
2021/10/08 07:16:46;;;;;;;30.70;20.47;;;10.40;96.30;;;;;;4971920;28;20177;-77
2021/10/08 07:19:15;;;;;;;31.30;18.87;;;10.40;96.30;;;;;;4971840;28;20202;-78
2021/10/08 07:21:42;;;;;;;36.90;20.33;;;10.50;96.30;;;;;;4964369;28;20206;-78
2021/10/08 07:24:08;;;;;;;29.93;20.83;;;10.40;96.30;;;;;;4943642;28;20443;-78
2021/10/08 07:26:34;;;;;;;26.07;18.37;;;10.50;96.30;;;;;;4946769;28;20442;-78
2021/10/08 07:28:59;;;;;;;31.33;17.10;;;10.40;96.30;;;;;;4955921;28;20426;-79
2021/10/08 07:31:25;;;;;;;25.13;19.10;;;10.40;96.30;;;;;;4971060;28;20249;-77
2021/10/08 07:33:51;;;;;;;28.40;19.00;;;10.50;96.30;;;;;;4971997;28;20207;-77
2021/10/08 07:36:17;;;;;;;30.33;19.00;;;10.50;96.30;;;;;;4955019;29;20187;-77
2021/10/08 07:38:42;;;;;;;29.63;18.70;;;10.50;96.30;;;;;;4954111;29;20202;-77
2021/10/08 07:41:09;;;;;;;31.37;19.37;;;10.50;96.30;;;;;;4955094;28;20277;-76
2021/10/08 07:43:36;;;;;;;25.10;18.37;;;10.60;96.30;;;;;;4952430;28;20423;-77
2021/10/08 07:46:03;;;;;;;27.30;18.73;;;10.60;96.30;;;;;;4950584;28;20446;-75
2021/10/08 07:48:29;;;;;;;29.77;19.03;;;10.60;96.30;;;;;;4966895;28;20518;-77
2021/10/08 07:50:54;;;;;;;27.40;18.13;;;10.80;96.30;;;;;;4951833;29;20541;-77
2021/10/08 07:53:20;;;;;;;28.00;18.80;;;11.00;96.30;;;;;;4953269;28;20182;-77
2021/10/08 07:55:46;;;;;;;29.13;19.20;;;11.40;96.30;;;;;;4947870;29;20227;-77
2021/10/08 07:58:11;;;;;;;24.37;16.87;;;11.90;96.30;;;;;;4935177;29;20179;-77
2021/10/08 08:00:37;;;;;;;23.20;17.30;;;12.20;96.30;;;;;;4936851;29;20978;-77
2021/10/08 08:03:02;;;;;;;24.53;18.07;;;12.40;96.30;;;;;;4938070;29;20231;-77
2021/10/08 08:05:28;;;;;;;36.63;16.80;;;12.10;96.30;;;;;;4941731;29;20180;-77
2021/10/08 08:07:53;;;;;;;23.47;17.73;;;11.80;96.30;;;;;;4937961;29;20180;-78
2021/10/08 08:10:19;;;;;;;22.00;16.10;;;12.00;96.30;;;;;;4937846;29;20180;-77
2021/10/08 08:12:44;;;;;;;22.80;13.97;;;11.80;96.30;;;;;;4937266;29;20187;-77
2021/10/08 08:15:10;;;;;;;25.03;16.70;;;11.70;96.30;;;;;;4937771;29;20298;-77
2021/10/08 08:17:36;;;;;;;27.80;18.50;;;11.60;96.30;;;;;;4947437;29;20183;-77
2021/10/08 08:20:04;;;;;;;22.20;15.30;;;11.60;96.30;;;;;;4956790;28;20411;-77
2021/10/08 08:22:30;;;;;;;21.93;15.47;;;11.60;96.30;;;;;;4955988;28;20528;-77
2021/10/08 08:24:55;;;;;;;31.40;14.47;;;11.70;96.30;;;;;;4955468;29;20423;-77
2021/10/08 08:27:21;;;;;;;28.60;17.80;;;11.90;96.30;;;;;;4955500;29;20183;-77
2021/10/08 08:29:46;;;;;;;21.63;15.20;;;12.20;96.30;;;;;;4955380;29;20174;-78
2021/10/08 08:32:12;;;;;;;29.00;16.90;;;12.40;96.30;;;;;;4955913;28;20203;-77
2021/10/08 08:34:37;;;;;;;23.43;17.20;;;12.40;96.30;;;;;;4956902;29;20241;-77
2021/10/08 08:37:03;;;;;;;21.10;14.10;;;12.40;96.30;;;;;;4956643;29;20171;-77
2021/10/08 08:39:31;;;;;;;31.00;17.10;;;12.30;96.30;;;;;;4955414;29;20171;-77
2021/10/08 08:41:57;;;;;;;23.83;15.30;;;12.00;96.30;;;;;;4955745;28;20187;-77
2021/10/08 08:44:22;;;;;;;12.87;9.03;;;11.80;96.30;;;;;;4956492;29;20915;-77
2021/10/08 08:46:48;;;;;;;17.73;12.07;;;11.60;96.30;;;;;;4956346;28;20193;-76
2021/10/08 08:49:13;;;;;;;24.50;14.40;;;11.50;96.30;;;;;;4955136;29;20193;-77
2021/10/08 08:51:39;;;;;;;17.40;11.63;;;11.60;96.30;;;;;;4955348;28;20201;-77
2021/10/08 08:54:07;;;;;;;15.73;11.77;;;11.70;96.30;;;;;;4956351;28;20254;-77
2021/10/08 08:56:34;;;;;;;19.60;13.67;;;12.30;96.30;;;;;;4956378;29;20175;-77
2021/10/08 08:59:11;;;;;;;25.27;13.20;;;13.80;96.30;;;;;;4956237;28;20421;-77
2021/10/08 09:02:03;;;;;;;18.30;12.73;;;14.80;96.30;;;;;;4955485;28;20449;-77
2021/10/08 09:04:30;;;;;;;21.30;13.40;;;15.80;96.30;;;;;;4955807;28;20418;-78
2021/10/08 09:06:56;;;;;;;19.53;12.00;;;16.20;96.30;;;;;;4955818;28;20839;-78
2021/10/08 09:09:23;;;;;;;18.67;12.50;;;16.00;96.30;;;;;;4960956;29;20446;-78
2021/10/08 09:11:51;;;;;;;18.60;10.73;;;15.20;96.30;;;;;;4954359;28;20435;-77
2021/10/08 09:14:18;;;;;;;15.73;10.97;;;14.70;96.30;;;;;;4955818;28;20455;-77
2021/10/08 09:17:06;;;;;;;16.40;9.73;;;14.50;96.30;;;;;;4954829;29;20423;-77
2021/10/08 09:19:50;;;;;;;19.93;10.10;;;14.30;96.30;;;;;;4955611;28;20822;-77
2021/10/08 09:22:29;;;;;;;16.90;10.80;;;14.40;96.30;;;;;;4955020;28;20938;-77
2021/10/08 09:25:15;;;;;;;17.90;10.87;;;14.30;96.30;;;;;;4955697;28;20835;-77
2021/10/08 09:27:43;;;;;;;15.60;8.87;;;15.00;96.30;;;;;;4955677;28;20498;-77
2021/10/08 09:30:10;;;;;;;18.10;10.03;;;14.70;96.30;;;;;;4955399;28;20431;-77
2021/10/08 09:32:47;;;;;;;17.30;11.10;;;14.70;96.30;;;;;;4954908;29;20840;-77
2021/10/08 09:35:18;;;;;;;22.57;11.30;;;14.80;96.30;;;;;;4955045;29;20996;-77
2021/10/08 09:37:56;;;;;;;16.40;11.17;;;15.50;96.30;;;;;;4955837;29;20419;-77
2021/10/08 09:40:28;;;;;;;20.77;11.70;;;16.30;96.30;;;;;;4955732;28;20470;-77
2021/10/08 09:43:06;;;;;;;25.07;11.50;;;16.40;96.30;;;;;;4954876;28;20505;-77
2021/10/08 09:45:35;;;;;;;22.43;10.60;;;16.70;95.70;;;;;;4955378;28;20410;-77
2021/10/08 09:48:00;;;;;;;19.40;9.83;;;16.30;96.30;;;;;;4955438;29;20421;-77
2021/10/08 09:50:26;;;;;;;19.30;12.13;;;15.50;96.30;;;;;;4955440;28;20422;-77
2021/10/08 09:53:12;;;;;;;20.13;11.80;;;15.70;96.30;;;;;;4953589;28;20643;-77
2021/10/08 09:55:39;;;;;;;17.97;11.37;;;15.70;96.30;;;;;;4955436;28;20215;-78
2021/10/08 09:58:05;;;;;;;16.07;11.20;;;15.50;96.30;;;;;;4955273;28;20413;-77
2021/10/08 10:00:40;;;;;;;16.50;10.90;;;15.80;96.30;;;;;;4953686;28;20557;-77
2021/10/08 10:03:07;;;;;;;23.17;11.53;;;16.00;96.30;;;;;;4954465;29;20147;-78
2021/10/08 10:05:33;;;;;;;19.83;11.67;;;16.20;96.30;;;;;;4955071;29;20421;-77
2021/10/08 10:08:00;;;;;;;17.50;11.80;;;16.10;96.30;;;;;;4955473;28;20413;-76
2021/10/08 10:10:26;;;;;;;23.90;12.03;;;15.90;96.30;;;;;;4961180;28;20407;-77
2021/10/08 10:12:52;;;;;;;18.13;12.57;;;15.90;96.30;;;;;;4954682;29;20513;-78
2021/10/08 10:15:19;;;;;;;22.67;12.93;;;15.70;96.30;;;;;;4956183;29;20517;-77
2021/10/08 10:17:45;;;;;;;20.27;11.13;;;15.90;96.30;;;;;;4954593;28;20465;-77
2021/10/08 10:20:12;;;;;;;19.37;11.10;;;15.90;96.30;;;;;;4954455;28;20768;-77
2021/10/08 10:22:38;;;;;;;29.00;12.97;;;16.20;96.30;;;;;;4953928;28;20415;-77
2021/10/08 10:25:05;;;;;;;25.40;13.57;;;16.10;96.30;;;;;;4954672;29;20477;-77
2021/10/08 10:27:31;;;;;;;22.40;11.43;;;15.60;96.30;;;;;;4954505;29;20423;-77
2021/10/08 10:29:57;;;;;;;31.60;13.07;;;15.30;96.30;;;;;;4954525;28;20414;-77
2021/10/08 10:32:23;;;;;;;23.57;13.10;;;15.50;96.30;;;;;;4952443;28;20624;-77
2021/10/08 10:34:49;;;;;;;21.20;11.80;;;15.80;96.30;;;;;;4953246;28;20864;-77
2021/10/08 10:37:36;;;;;;;18.00;12.37;;;15.70;96.30;;;;;;4954320;28;20501;-77
2021/10/08 10:40:23;;;;;;;16.67;11.20;;;15.70;96.30;;;;;;4954435;28;20238;-77
2021/10/08 10:43:15;;;;;;;17.93;11.43;;;16.10;96.30;;;;;;4953617;28;20410;-77
2021/10/08 10:45:46;;;;;;;20.23;11.27;;;16.30;96.30;;;;;;4954092;28;20422;-77
2021/10/08 10:48:26;;;;;;;23.80;11.13;;;16.00;96.30;;;;;;4953897;28;20411;-77
2021/10/08 10:51:14;;;;;;;34.23;11.63;;;15.90;96.30;;;;;;4954161;28;20509;-77
2021/10/08 10:53:53;;;;;;;23.07;10.07;;;15.50;96.30;;;;;;4954203;28;20425;-77
2021/10/08 10:56:43;;;;;;;18.30;9.73;;;15.40;96.30;;;;;;4954060;28;20422;-77
2021/10/08 10:59:23;;;;;;;17.70;9.80;;;15.70;96.30;;;;;;4954171;28;20461;-77
2021/10/08 11:04:35;;;;;;;31.87;10.47;;;15.80;95.40;;;;;;4953969;28;21065;-77
2021/10/08 11:07:07;;;;;;;18.10;8.60;;;16.10;94.90;;;;;;4953989;28;20407;-76
2021/10/08 11:09:33;;;;;;;17.63;8.50;;;16.50;93.90;;;;;;4954208;28;20438;-76
2021/10/08 11:12:30;;;;;;;19.97;9.40;;;16.40;93.30;;;;;;4953960;28;20423;-76
2021/10/08 11:15:14;;;;;;;29.77;9.27;;;16.40;93.30;;;;;;4954745;28;20588;-76
2021/10/08 11:17:48;;;;;;;20.53;10.60;;;16.10;94.30;;;;;;4954263;28;20457;-76
2021/10/08 11:20:28;;;;;;;25.90;9.97;;;16.20;95.20;;;;;;4954067;28;20399;-76
2021/10/08 11:22:56;;;;;;;20.73;10.10;;;16.50;96.10;;;;;;4940212;28;20423;-76
2021/10/08 11:25:22;;;;;;;22.70;9.83;;;16.00;95.90;;;;;;4933507;29;20423;-76
2021/10/08 11:27:49;;;;;;;18.07;8.80;;;16.00;95.90;;;;;;4933565;29;20821;-76
2021/10/08 11:30:15;;;;;;;19.60;8.60;;;15.80;95.80;;;;;;4934739;29;20203;-77
2021/10/08 11:32:50;;;;;;;14.60;7.27;;;15.80;95.20;;;;;;4934410;29;20923;-77
2021/10/08 11:35:18;;;;;;;12.23;6.10;;;15.80;93.10;;;;;;4936498;29;20447;-76
2021/10/08 11:37:46;;;;;;;14.87;7.10;;;16.10;90.90;;;;;;4939716;28;20449;-79
2021/10/08 11:40:15;;;;;;;10.93;6.80;;;16.10;90.20;;;;;;4974407;28;20460;-75
2021/10/08 11:42:49;;;;;;;11.20;6.10;;;15.80;86.80;;;;;;4974780;28;20410;-76
2021/10/08 11:45:17;;;;;;;29.40;6.83;;;15.50;87.90;;;;;;4976141;28;20409;-76
2021/10/08 11:47:47;;;;;;;12.83;6.10;;;15.80;86.80;;;;;;4959223;28;20993;-76
2021/10/08 11:52:45;;;;;;;23.60;7.13;;;16.10;87.30;;;;;;4956417;28;20997;-76
2021/10/08 11:55:19;;;;;;;16.50;6.40;;;15.80;87.30;;;;;;4960844;28;20469;-76
2021/10/08 11:57:54;;;;;;;10.10;6.27;;;16.20;88.30;;;;;;4968334;28;20414;-76
2021/10/08 12:00:22;;;;;;;17.33;6.10;;;15.80;88.70;;;;;;4937471;28;20486;-76
2021/10/08 12:02:59;;;;;;;13.53;5.60;;;15.70;88.20;;;;;;4936945;29;20504;-76
2021/10/08 12:05:25;;;;;;;19.27;6.90;;;16.00;88.70;;;;;;4948916;29;20961;-76
2021/10/08 12:08:01;;;;;;;9.97;6.03;;;16.20;88.20;;;;;;4956528;28;20442;-76
2021/10/08 12:10:26;;;;;;;11.03;6.70;;;15.80;87.70;;;;;;4956740;28;20167;-76
2021/10/08 12:12:55;;;;;;;16.43;8.17;;;15.60;89.00;;;;;;4955978;28;20461;-76
2021/10/08 12:15:31;;;;;;;13.30;6.50;;;15.40;89.50;;;;;;4942712;28;20641;-76
2021/10/08 12:17:58;;;;;;;9.77;5.80;;;15.50;88.70;;;;;;4957583;28;20414;-77
2021/10/08 12:20:29;;;;;;;15.60;7.00;;;15.30;88.40;;;;;;4958199;28;20411;-76
2021/10/08 12:23:33;;;;;;;12.57;6.67;;;15.40;88.70;;;;;;4955904;28;20399;-76
2021/10/08 12:25:58;;;;;;;25.73;7.20;;;15.60;89.00;;;;;;4939602;29;20431;-79
2021/10/08 12:28:25;;;;;;;15.93;7.33;;;15.90;88.40;;;;;;4920669;29;20457;-77
2021/10/08 12:31:03;;;;;;;15.47;7.10;;;16.20;87.20;;;;;;4947075;28;20234;-77
2021/10/08 12:33:41;;;;;;;18.57;7.17;;;16.00;88.40;;;;;;4957612;29;20430;-77
2021/10/08 12:36:14;;;;;;;16.07;7.30;;;16.30;90.30;;;;;;4957427;29;20512;-76
2021/10/08 12:38:52;;;;;;;15.27;7.00;;;16.50;89.70;;;;;;4956261;28;20423;-77
2021/10/08 12:41:25;;;;;;;18.00;7.43;;;16.00;89.90;;;;;;4954078;28;20470;-76
2021/10/08 12:44:13;;;;;;;23.83;7.63;;;15.60;91.00;;;;;;4959006;28;20911;-78
2021/10/08 12:46:41;;;;;;;15.30;6.63;;;15.70;91.00;;;;;;4957687;28;20462;-78
2021/10/08 12:49:08;;;;;;;18.57;7.33;;;15.70;90.90;;;;;;4955783;28;20429;-77
2021/10/08 12:51:48;;;;;;;21.37;7.30;;;15.80;91.00;;;;;;4955918;28;20438;-76
2021/10/08 12:54:25;;;;;;;15.47;7.60;;;16.30;89.50;;;;;;4957196;28;20817;-78
2021/10/08 12:57:11;;;;;;;24.43;8.80;;;16.00;89.50;;;;;;4973628;28;20429;-78
2021/10/08 12:59:47;;;;;;;13.73;7.97;;;15.80;90.40;;;;;;4976793;28;20467;-78
2021/10/08 13:02:12;;;;;;;26.27;7.60;;;16.10;90.20;;;;;;4977170;28;20444;-79
2021/10/08 13:04:40;;;;;;;19.43;7.97;;;16.00;90.10;;;;;;4977764;28;20412;-79
2021/10/08 13:07:20;;;;;;;16.60;8.23;;;16.00;91.20;;;;;;4977663;28;20257;-78
2021/10/08 13:10:12;;;;;;;14.97;7.20;;;16.00;89.40;;;;;;4977357;28;20417;-79
2021/10/08 13:12:41;;;;;;;16.27;7.47;;;16.00;88.00;;;;;;4976604;28;20421;-79
2021/10/08 13:15:11;;;;;;;19.83;8.20;;;15.50;88.80;;;;;;4976428;28;20819;-78
2021/10/08 13:17:37;;;;;;;14.20;8.00;;;15.40;91.70;;;;;;4955504;28;20423;-76
2021/10/08 13:20:08;;;;;;;25.40;7.97;;;15.70;91.10;;;;;;4955896;28;20421;-77
2021/10/08 13:22:33;;;;;;;12.57;7.30;;;15.80;89.10;;;;;;4954183;28;20749;-78
2021/10/08 13:25:04;;;;;;;22.27;7.60;;;15.60;88.50;;;;;;4956322;28;20430;-79
2021/10/08 13:27:32;;;;;;;21.30;7.40;;;15.20;90.00;;;;;;4966069;28;20231;-76
2021/10/08 13:30:01;;;;;;;12.73;7.10;;;15.30;88.90;;;;;;4960467;28;20421;-76
2021/10/08 13:32:28;;;;;;;17.73;6.57;;;15.40;87.70;;;;;;4962578;28;20438;-78
2021/10/08 13:34:54;;;;;;;22.23;7.30;;;15.40;87.20;;;;;;4960531;28;20466;-76
2021/10/08 13:37:19;;;;;;;19.90;7.03;;;15.20;87.30;;;;;;4955319;28;20462;-76
2021/10/08 13:39:45;;;;;;;16.70;5.77;;;15.20;88.40;;;;;;4972365;28;20185;-76
2021/10/08 13:42:11;;;;;;;10.60;6.17;;;15.40;88.40;;;;;;4973059;28;20206;-76
2021/10/08 13:44:38;;;;;;;18.40;6.30;;;15.40;88.50;;;;;;4971179;28;20261;-77
2021/10/08 13:47:04;;;;;;;14.30;7.03;;;15.50;86.20;;;;;;4973886;28;20448;-77
2021/10/08 13:49:29;;;;;;;11.47;5.40;;;15.40;85.90;;;;;;4974205;28;20413;-77
2021/10/08 13:51:55;;;;;;;15.93;5.63;;;15.20;85.50;;;;;;4973948;28;20437;-77
2021/10/08 13:54:21;;;;;;;10.40;4.83;;;15.30;84.80;;;;;;4974625;28;20268;-77
2021/10/08 13:56:46;;;;;;;17.30;4.43;;;15.40;85.10;;;;;;4974960;28;20178;-77
2021/10/08 13:59:13;;;;;;;12.03;5.43;;;15.30;85.40;;;;;;4974437;28;20253;-78
2021/10/08 14:01:47;;;;;;;10.93;5.70;;;15.20;84.80;;;;;;4974223;28;20352;-77
2021/10/08 14:04:21;;;;;;;14.77;5.07;;;15.30;83.80;;;;;;4974108;28;20397;-78
2021/10/08 14:07:02;;;;;;;9.97;4.40;;;15.00;82.80;;;;;;4974692;28;20404;-79
2021/10/08 14:12:11;;;;;;;20.57;4.80;;;15.10;82.80;;;;;;4974021;28;20457;-78
2021/10/08 14:14:37;;;;;;;9.00;4.73;;;14.80;83.80;;;;;;4973881;28;20950;-78
2021/10/08 14:17:02;;;;;;;12.53;4.73;;;14.80;84.10;;;;;;4973009;28;20171;-77
2021/10/08 14:19:28;;;;;;;11.73;5.97;;;14.70;84.80;;;;;;4974180;28;20549;-78
2021/10/08 14:21:53;;;;;;;13.07;5.90;;;14.70;85.80;;;;;;4973394;28;20201;-77
2021/10/08 14:24:19;;;;;;;13.53;5.33;;;14.80;86.30;;;;;;4972772;28;20181;-77
2021/10/08 14:26:44;;;;;;;16.73;5.73;;;14.70;85.10;;;;;;4968520;28;20619;-77
2021/10/08 14:29:10;;;;;;;11.80;4.53;;;14.70;85.30;;;;;;4955399;28;20167;-78
2021/10/08 14:31:35;;;;;;;22.27;6.00;;;14.50;85.70;;;;;;4953819;28;20246;-78
2021/10/08 14:34:00;;;;;;;13.53;5.70;;;14.10;85.80;;;;;;4952783;28;20179;-76
2021/10/08 14:36:26;;;;;;;14.57;5.57;;;14.00;85.80;;;;;;4954351;28;20190;-78
2021/10/08 14:38:55;;;;;;;7.47;4.40;;;13.90;86.50;;;;;;4954220;28;20202;-77
2021/10/08 14:41:20;;;;;;;11.60;5.23;;;13.80;86.80;;;;;;4953533;28;20443;-79
2021/10/08 14:43:46;;;;;;;11.43;5.20;;;13.70;87.90;;;;;;4955363;28;20422;-78
2021/10/08 14:46:11;;;;;;;10.03;5.33;;;13.70;87.70;;;;;;4955135;28;20539;-77
2021/10/08 14:48:37;;;;;;;10.00;5.27;;;13.60;88.30;;;;;;4954512;28;20175;-78
2021/10/08 14:51:02;;;;;;;18.23;5.23;;;13.70;88.80;;;;;;4951937;28;20199;-78
2021/10/08 14:53:28;;;;;;;15.33;5.90;;;13.80;88.90;;;;;;4954367;28;20218;-78
2021/10/08 14:55:58;;;;;;;9.27;5.73;;;13.80;88.50;;;;;;4954384;28;20207;-78
2021/10/08 14:58:24;;;;;;;15.00;5.40;;;13.70;88.50;;;;;;4953678;28;20658;-78
2021/10/08 15:00:49;;;;;;;10.00;5.10;;;13.60;87.50;;;;;;4952463;28;20489;-75
2021/10/08 15:03:18;;;;;;;17.83;4.60;;;13.40;87.70;;;;;;4953657;28;20175;-77
2021/10/08 15:05:44;;;;;;;8.33;3.87;;;13.40;88.30;;;;;;4952081;28;20190;-78
2021/10/08 15:08:09;;;;;;;7.67;4.20;;;13.30;88.20;;;;;;4953772;28;20449;-78
2021/10/08 15:10:35;;;;;;;11.23;4.80;;;13.30;88.70;;;;;;4952845;28;20585;-78
2021/10/08 15:13:01;;;;;;;12.10;4.83;;;13.30;88.70;;;;;;4951324;28;20183;-77
2021/10/08 15:15:27;;;;;;;10.83;4.50;;;13.20;88.40;;;;;;4962978;28;20602;-77
2021/10/08 15:17:52;;;;;;;12.00;4.43;;;13.20;88.40;;;;;;4973302;28;20174;-79
2021/10/08 15:20:18;;;;;;;13.23;4.87;;;13.10;89.10;;;;;;4973276;28;20537;-78
2021/10/08 15:22:44;;;;;;;12.07;5.90;;;12.90;90.30;;;;;;4972701;28;20174;-79
2021/10/08 15:25:10;;;;;;;7.30;4.33;;;12.90;89.90;;;;;;4973721;28;20182;-78
2021/10/08 15:27:40;;;;;;;9.93;3.80;;;12.80;90.90;;;;;;4960035;28;20190;-79
2021/10/08 15:30:06;;;;;;;14.93;6.03;;;12.70;89.40;;;;;;4953230;28;20422;-79
2021/10/08 15:32:32;;;;;;;6.80;4.03;;;12.60;89.50;;;;;;4953617;28;20442;-79
2021/10/08 15:34:58;;;;;;;8.77;4.00;;;12.70;89.40;;;;;;4954347;28;20550;-79
2021/10/08 15:37:24;;;;;;;10.70;4.30;;;12.50;89.00;;;;;;4953203;28;20198;-78
2021/10/08 15:39:52;;;;;;;11.67;4.30;;;12.50;89.90;;;;;;4952874;28;20919;-79
2021/10/08 15:42:18;;;;;;;6.47;3.70;;;12.40;90.30;;;;;;4953129;28;20219;-79
2021/10/08 15:44:46;;;;;;;17.63;4.03;;;12.30;90.90;;;;;;4953395;28;20410;-78
2021/10/08 15:47:13;;;;;;;10.83;3.90;;;12.20;92.30;;;;;;4953432;28;20702;-78
2021/10/08 15:49:39;;;;;;;20.43;3.87;;;12.10;91.90;;;;;;4952270;28;20422;-78
2021/10/08 15:52:04;;;;;;;8.30;2.97;;;12.00;91.60;;;;;;4951538;28;21001;-78
2021/10/08 15:54:30;;;;;;;8.53;4.40;;;12.00;91.80;;;;;;4953467;28;20203;-78
2021/10/08 15:56:55;;;;;;;11.57;4.47;;;12.00;91.90;;;;;;4953330;28;20514;-77
2021/10/08 15:59:21;;;;;;;4.87;3.67;;;11.80;93.50;;;;;;4952132;28;20179;-78
2021/10/08 16:01:47;;;;;;;14.30;4.60;;;11.70;93.40;;;;;;4952303;28;20203;-78
2021/10/08 16:04:13;;;;;;;15.50;5.07;;;11.70;93.30;;;;;;4953307;28;20407;-78
2021/10/08 16:06:38;;;;;;;10.63;6.70;;;11.60;93.50;;;;;;4953120;28;20541;-78
2021/10/08 16:09:04;;;;;;;21.17;10.30;;;11.40;94.20;;;;;;4951908;28;20222;-77
2021/10/08 16:11:29;;;;;;;8.90;4.70;;;11.40;94.30;;;;;;4953860;28;20191;-79
2021/10/08 16:13:56;;;;;;;8.10;4.50;;;11.30;95.20;;;;;;4958036;28;20187;-76
2021/10/08 16:16:25;;;;;;;8.33;4.10;;;11.20;95.40;;;;;;4957954;28;20206;-78
2021/10/08 16:18:54;;;;;;;9.47;4.90;;;11.00;96.30;;;;;;4956421;28;20482;-76
2021/10/08 16:21:20;;;;;;;11.10;4.50;;;10.90;96.30;;;;;;4956486;28;20426;-76
2021/10/08 16:23:45;;;;;;;6.10;4.03;;;10.60;96.30;;;;;;4958589;28;20411;-76
2021/10/08 16:26:13;;;;;;;8.53;4.20;;;10.60;96.30;;;;;;4957240;28;20186;-77
2021/10/08 16:28:38;;;;;;;6.80;4.00;;;10.60;96.30;;;;;;4958110;28;20182;-76
2021/10/08 16:31:04;;;;;;;10.43;5.00;;;10.40;96.30;;;;;;4957901;28;20446;-75
2021/10/08 16:33:29;;;;;;;4.50;4.10;;;10.30;96.30;;;;;;4958608;28;20209;-76
2021/10/08 16:35:56;;;;;;;7.10;4.30;;;10.00;96.30;;;;;;4957942;29;20676;-76
2021/10/08 16:38:22;;;;;;;5.40;4.40;;;10.10;96.30;;;;;;4958907;28;20182;-77
2021/10/08 16:40:47;;;;;;;8.50;3.67;;;10.10;96.30;;;;;;4958651;28;20438;-76
2021/10/08 16:43:14;;;;;;;6.10;4.10;;;10.00;96.30;;;;;;4958164;28;20175;-77
2021/10/08 16:45:40;;;;;;;6.47;4.00;;;10.00;96.30;;;;;;4957708;28;20183;-76
2021/10/08 16:48:07;;;;;;;6.07;3.60;;;9.90;96.30;;;;;;4958596;28;20429;-76